McKeesport, Pennsylvania
Current Conditions -  °F | °C
As of 2:53 AM on Monday 24 Nov 2014 (Local Time) from KAGC Reporting Station
Overcast Overcast  
Wind Chill: 57°   Ceiling: 4800
Heat Index: 57°   Visibility: 10mi
Dew Point: 49°   Wind: 12mph
Humidity: 74%   Direction: 160°SSE
Pressure: 29.4"   Gusts: NA
Location:  40.35°N, 79.86°W
Report Text: KAGC 240753Z AUTO 16010KT 10SM OVC048 14/09 A2940 RMK AO2 SLP956 T01390094 TSNO
Loading
Personal Weather Stations






























Interactive Weather Map New forecast layout! Learn more

10-Day Weather Forecast

Advertisements
Track Severe Weather on mobile